Time;durP1;ratioP1;P1;durP2;ratioP2;P2;SDS_P1;SDS_P2;PMS_P1;PMS_P2;Temp;Humidity;BMP_temperature;BMP_pressure;BME280_temperature;BME280_humidity;BME280_pressure;Samples;Min_cycle;Max_cycle;Signal;HPM_P1;HPM_P2
2022/07/18 00:01:53;;;;;;;3.55;2.20;;;20.20;32.30;;;;;;5071573;28;20173;-44
2022/07/18 00:04:18;;;;;;;3.55;1.58;;;20.20;32.40;;;;;;5071627;28;20165;-44
2022/07/18 00:06:44;;;;;;;3.50;1.93;;;20.20;32.40;;;;;;5071407;28;20165;-44
2022/07/18 00:09:10;;;;;;;4.53;1.97;;;20.20;32.40;;;;;;5071660;28;20268;-44
2022/07/18 00:11:36;;;;;;;3.47;2.10;;;20.20;32.60;;;;;;5071577;28;20176;-44
2022/07/18 00:14:02;;;;;;;2.83;1.80;;;20.20;32.50;;;;;;5071619;28;20203;-44
2022/07/18 00:16:28;;;;;;;3.50;2.27;;;20.20;32.50;;;;;;5071300;28;20890;-45
2022/07/18 00:18:57;;;;;;;3.05;1.73;;;20.10;32.60;;;;;;5071246;28;20545;-44
2022/07/18 00:21:23;;;;;;;3.92;2.40;;;20.10;32.50;;;;;;5072580;28;20256;-44
2022/07/18 00:23:48;;;;;;;2.90;1.63;;;20.00;32.60;;;;;;5075164;28;20243;-44
2022/07/18 00:26:14;;;;;;;4.40;2.00;;;20.00;32.60;;;;;;5074948;28;20648;-44
2022/07/18 00:28:40;;;;;;;2.70;1.80;;;20.00;32.50;;;;;;5075021;28;20203;-45
2022/07/18 00:31:06;;;;;;;6.20;2.63;;;20.00;32.60;;;;;;5074997;28;20255;-44
2022/07/18 00:33:32;;;;;;;3.30;2.10;;;19.90;32.60;;;;;;5075103;28;20651;-44
2022/07/18 00:35:57;;;;;;;9.73;1.40;;;19.90;32.60;;;;;;5074729;28;20418;-44
2022/07/18 00:38:24;;;;;;;4.67;2.03;;;19.90;32.60;;;;;;5074755;28;20188;-45
2022/07/18 00:40:50;;;;;;;2.38;1.88;;;19.90;32.50;;;;;;5074949;28;20173;-44
2022/07/18 00:43:15;;;;;;;5.30;1.77;;;19.80;32.70;;;;;;5074762;28;20673;-44
2022/07/18 00:45:49;;;;;;;4.13;1.90;;;19.80;33.00;;;;;;5074509;28;20164;-45
2022/07/18 00:48:15;;;;;;;3.72;1.70;;;19.80;32.90;;;;;;5074879;28;20278;-44
2022/07/18 00:50:43;;;;;;;3.45;1.40;;;19.80;32.90;;;;;;5074730;28;20651;-44
2022/07/18 00:53:10;;;;;;;6.85;2.05;;;19.80;33.10;;;;;;5074727;28;20683;-44
2022/07/18 00:55:46;;;;;;;3.50;1.60;;;19.80;33.20;;;;;;5074273;28;20592;-44
2022/07/18 00:58:13;;;;;;;5.18;1.98;;;19.70;33.30;;;;;;5074257;28;20244;-44
2022/07/18 01:03:24;;;;;;;3.85;2.38;;;19.60;33.10;;;;;;5074800;28;20716;-44
2022/07/18 01:05:49;;;;;;;2.23;1.87;;;19.60;33.40;;;;;;5056175;28;20202;-44
2022/07/18 01:08:15;;;;;;;3.10;1.77;;;19.50;33.30;;;;;;5074323;28;20426;-44
2022/07/18 01:10:41;;;;;;;4.17;1.63;;;19.50;33.30;;;;;;5074460;28;20490;-44
2022/07/18 01:13:07;;;;;;;2.30;1.47;;;19.50;33.50;;;;;;5074293;28;20199;-45
2022/07/18 01:15:33;;;;;;;2.90;2.10;;;19.50;33.50;;;;;;5074013;28;20403;-45
2022/07/18 01:17:59;;;;;;;3.50;2.60;;;19.50;33.60;;;;;;5073830;28;20496;-44
2022/07/18 01:20:30;;;;;;;3.93;2.00;;;19.40;33.70;;;;;;5074085;28;20409;-44
2022/07/18 01:22:56;;;;;;;3.90;2.15;;;19.40;33.80;;;;;;5074128;28;20200;-44
2022/07/18 01:25:22;;;;;;;2.92;1.88;;;19.30;33.80;;;;;;5073924;28;20172;-44
2022/07/18 01:27:48;;;;;;;2.50;1.77;;;19.30;33.90;;;;;;5073690;28;20238;-44
2022/07/18 01:30:14;;;;;;;3.07;1.50;;;19.20;34.00;;;;;;5074007;28;20456;-44
2022/07/18 01:32:41;;;;;;;3.22;1.80;;;19.10;33.90;;;;;;5073739;28;20403;-44
2022/07/18 01:35:08;;;;;;;3.33;2.10;;;19.10;33.80;;;;;;5074115;28;20181;-44
2022/07/18 01:37:34;;;;;;;3.67;2.17;;;19.10;33.80;;;;;;5073719;28;20242;-44
2022/07/18 01:40:00;;;;;;;5.07;2.10;;;19.10;34.10;;;;;;5073623;28;20196;-44
2022/07/18 01:42:25;;;;;;;2.83;1.80;;;19.10;34.10;;;;;;5073604;28;20176;-45
2022/07/18 01:44:51;;;;;;;7.20;1.80;;;19.10;34.40;;;;;;5073656;28;20257;-44
2022/07/18 01:47:17;;;;;;;6.10;2.07;;;19.00;34.40;;;;;;5073408;28;20250;-44
2022/07/18 01:49:44;;;;;;;4.70;2.20;;;19.00;34.40;;;;;;5073555;28;20529;-44
2022/07/18 01:52:09;;;;;;;3.55;1.80;;;18.90;34.30;;;;;;5073505;28;20701;-45
2022/07/18 01:54:37;;;;;;;2.90;1.80;;;18.90;34.30;;;;;;5073354;28;20275;-44
2022/07/18 01:57:04;;;;;;;4.30;1.95;;;18.90;34.50;;;;;;5073058;28;20419;-44
2022/07/18 01:59:30;;;;;;;4.03;2.30;;;18.80;34.60;;;;;;5073251;28;20713;-44
2022/07/18 02:01:56;;;;;;;2.60;1.87;;;18.70;34.60;;;;;;5073324;28;20168;-44
2022/07/18 02:04:59;;;;;;;2.87;1.80;;;18.70;34.80;;;;;;5073277;28;20226;-45
2022/07/18 02:07:11;;;;;;;3.88;2.08;;;18.60;34.60;;;;;;5072702;28;20204;-44
2022/07/18 02:09:36;;;;;;;2.72;1.50;;;18.50;35.30;;;;;;5073290;28;20225;-44
2022/07/18 02:12:03;;;;;;;2.80;1.77;;;18.50;34.70;;;;;;5073023;28;20310;-44
2022/07/18 02:14:28;;;;;;;2.35;1.80;;;18.40;34.70;;;;;;5073095;28;20399;-44
2022/07/18 02:16:54;;;;;;;2.80;1.70;;;18.40;34.70;;;;;;5072554;28;20177;-44
2022/07/18 02:19:20;;;;;;;3.37;2.40;;;18.40;34.80;;;;;;5072855;28;20192;-43
2022/07/18 02:21:46;;;;;;;2.93;2.37;;;18.40;35.00;;;;;;5072835;28;20197;-44
2022/07/18 02:24:11;;;;;;;2.70;2.23;;;18.40;34.80;;;;;;5073176;28;20176;-44
2022/07/18 02:26:37;;;;;;;3.17;2.00;;;18.40;34.90;;;;;;5072504;28;20413;-45
2022/07/18 02:29:03;;;;;;;8.57;1.90;;;18.30;34.90;;;;;;5072769;28;20196;-43
2022/07/18 02:31:28;;;;;;;3.17;2.10;;;18.30;34.90;;;;;;5072722;28;20640;-44
2022/07/18 02:33:54;;;;;;;8.23;2.73;;;18.30;35.00;;;;;;5072699;28;20177;-45
2022/07/18 02:36:20;;;;;;;4.73;2.57;;;18.20;35.00;;;;;;5072547;28;20172;-45
2022/07/18 02:38:46;;;;;;;4.30;3.03;;;18.20;35.00;;;;;;5072416;28;20659;-44
2022/07/18 02:41:11;;;;;;;6.97;2.60;;;18.20;35.00;;;;;;5072756;28;20176;-43
2022/07/18 02:43:37;;;;;;;8.67;2.60;;;18.10;35.20;;;;;;5072035;28;20398;-44
2022/07/18 02:46:03;;;;;;;4.03;2.50;;;18.10;35.30;;;;;;5072553;28;20172;-44
2022/07/18 02:48:29;;;;;;;4.47;2.27;;;18.10;35.20;;;;;;5072609;28;20441;-44
2022/07/18 02:50:55;;;;;;;6.23;2.77;;;18.10;35.40;;;;;;5072311;28;20924;-44
2022/07/18 02:53:23;;;;;;;6.77;2.60;;;18.10;35.30;;;;;;5072333;28;20176;-45
2022/07/18 02:55:50;;;;;;;3.97;2.60;;;18.10;35.30;;;;;;5072466;28;20402;-45
2022/07/18 02:58:16;;;;;;;3.22;2.75;;;18.10;35.30;;;;;;5072391;28;20207;-45
2022/07/18 03:00:42;;;;;;;3.08;2.20;;;18.00;35.50;;;;;;5072297;28;20165;-44
2022/07/18 03:03:08;;;;;;;4.17;3.00;;;18.00;35.30;;;;;;5072258;28;20226;-46
2022/07/18 03:05:34;;;;;;;3.77;3.00;;;18.00;35.50;;;;;;5072508;28;20414;-45
2022/07/18 03:07:59;;;;;;;3.70;2.53;;;18.00;35.50;;;;;;5072404;28;20754;-45
2022/07/18 03:10:25;;;;;;;3.87;3.00;;;17.90;35.70;;;;;;5072359;28;20407;-44
2022/07/18 03:12:51;;;;;;;6.40;2.73;;;17.90;35.70;;;;;;5072046;28;20173;-44
2022/07/18 03:15:17;;;;;;;3.67;2.83;;;17.90;35.90;;;;;;5072101;28;20410;-46
2022/07/18 03:17:43;;;;;;;4.43;2.73;;;17.90;35.80;;;;;;5071626;28;20232;-45
2022/07/18 03:20:09;;;;;;;5.43;3.27;;;17.80;35.90;;;;;;5071929;28;20490;-45
2022/07/18 03:22:35;;;;;;;4.25;2.55;;;17.70;35.90;;;;;;5071977;28;20407;-46
2022/07/18 03:25:01;;;;;;;7.63;4.63;;;17.70;35.90;;;;;;5071998;28;20203;-46
2022/07/18 03:27:27;;;;;;;5.80;2.97;;;17.70;36.10;;;;;;5071714;28;20444;-45
2022/07/18 03:29:53;;;;;;;6.93;3.73;;;17.70;36.00;;;;;;5071965;28;20474;-46
2022/07/18 03:32:19;;;;;;;4.87;3.30;;;17.70;36.00;;;;;;5071811;28;20173;-46
2022/07/18 03:34:44;;;;;;;6.53;3.00;;;17.60;36.00;;;;;;5071922;28;20402;-44
2022/07/18 03:37:10;;;;;;;6.37;4.17;;;17.60;36.10;;;;;;5071684;28;20418;-45
2022/07/18 03:39:36;;;;;;;10.67;4.10;;;17.60;36.10;;;;;;5071719;28;20464;-45
2022/07/18 03:42:02;;;;;;;5.93;4.80;;;17.60;36.10;;;;;;5071781;28;20175;-45
2022/07/18 03:44:28;;;;;;;6.30;4.05;;;17.60;36.30;;;;;;5071757;28;20179;-45
2022/07/18 03:46:54;;;;;;;5.53;4.40;;;17.70;36.30;;;;;;5071341;28;20255;-45
2022/07/18 03:49:20;;;;;;;5.30;4.47;;;17.60;36.10;;;;;;5071991;28;20914;-45
2022/07/18 03:51:46;;;;;;;8.63;4.38;;;17.70;36.40;;;;;;5053807;28;20165;-45
2022/07/18 03:54:12;;;;;;;19.37;4.77;;;17.70;36.50;;;;;;5071847;28;20184;-46
2022/07/18 03:56:38;;;;;;;20.90;6.07;;;17.70;36.40;;;;;;5074796;28;20411;-46
2022/07/18 03:59:04;;;;;;;6.03;4.15;;;17.70;36.60;;;;;;5075709;28;20593;-45
2022/07/18 04:01:30;;;;;;;9.07;5.23;;;17.70;36.60;;;;;;5075580;28;20255;-45
2022/07/18 04:03:56;;;;;;;6.77;4.53;;;17.70;36.50;;;;;;5075486;28;20160;-45
2022/07/18 04:06:21;;;;;;;10.77;5.37;;;17.70;36.60;;;;;;5075312;28;21095;-46
2022/07/18 04:08:47;;;;;;;8.63;5.37;;;17.70;36.50;;;;;;5075315;28;20521;-43
2022/07/18 04:11:13;;;;;;;8.80;5.27;;;17.80;36.60;;;;;;5075346;28;20183;-44
2022/07/18 04:13:39;;;;;;;8.67;4.50;;;17.80;36.60;;;;;;5075263;28;20177;-46
2022/07/18 04:16:05;;;;;;;7.47;5.57;;;17.80;36.60;;;;;;5075059;28;20169;-44
2022/07/18 04:18:30;;;;;;;12.80;5.43;;;17.80;36.80;;;;;;5074955;28;20462;-45
2022/07/18 04:20:56;;;;;;;6.63;5.03;;;17.90;36.70;;;;;;5078186;28;20482;-44
2022/07/18 04:23:22;;;;;;;7.93;5.67;;;17.90;36.80;;;;;;5081295;28;20313;-44
2022/07/18 04:25:48;;;;;;;11.13;6.27;;;17.90;36.80;;;;;;5081146;28;20691;-43
2022/07/18 04:28:14;;;;;;;8.00;4.83;;;18.00;36.80;;;;;;5080990;28;20418;-44
2022/07/18 04:30:42;;;;;;;13.32;5.47;;;18.00;36.80;;;;;;5080808;28;20175;-46
2022/07/18 04:33:10;;;;;;;10.93;6.40;;;18.10;36.70;;;;;;5081110;28;20658;-44
2022/07/18 04:35:38;;;;;;;7.28;4.47;;;18.20;36.80;;;;;;5080152;28;20185;-44
2022/07/18 04:38:05;;;;;;;8.27;5.72;;;18.20;36.60;;;;;;5074969;28;20280;-44
2022/07/18 04:40:31;;;;;;;7.25;5.40;;;18.30;36.70;;;;;;5075076;28;20224;-46
2022/07/18 04:42:57;;;;;;;9.77;4.97;;;18.40;36.50;;;;;;5074817;28;20584;-45
2022/07/18 04:45:23;;;;;;;7.45;5.03;;;18.40;36.40;;;;;;5074851;28;20413;-46
2022/07/18 04:47:54;;;;;;;9.50;4.70;;;18.50;36.00;;;;;;5074664;28;20195;-45
2022/07/18 04:50:21;;;;;;;5.90;4.40;;;18.60;35.80;;;;;;5074783;28;20172;-45
2022/07/18 04:52:48;;;;;;;8.25;4.65;;;18.80;35.80;;;;;;5074672;28;20176;-44
2022/07/18 04:55:18;;;;;;;9.00;4.60;;;18.90;35.70;;;;;;5074585;28;20210;-46
2022/07/18 04:57:43;;;;;;;6.35;4.13;;;19.00;35.50;;;;;;5074202;28;20191;-43
2022/07/18 05:00:13;;;;;;;6.50;4.37;;;19.10;35.40;;;;;;5074354;28;20208;-46
2022/07/18 05:02:40;;;;;;;5.28;4.55;;;19.20;35.10;;;;;;5074433;28;20248;-44
2022/07/18 05:05:07;;;;;;;6.90;3.90;;;19.30;34.90;;;;;;5074359;28;20177;-46
2022/07/18 05:07:32;;;;;;;5.30;4.18;;;19.40;34.80;;;;;;5073479;28;20770;-46
2022/07/18 05:09:58;;;;;;;6.00;4.30;;;19.50;34.70;;;;;;5074315;28;20215;-45
2022/07/18 05:12:24;;;;;;;5.10;3.50;;;19.50;34.50;;;;;;5074192;28;20204;-46
2022/07/18 05:14:50;;;;;;;8.47;3.40;;;19.60;34.30;;;;;;5074223;28;20494;-45
2022/07/18 05:17:17;;;;;;;6.53;4.22;;;19.60;34.30;;;;;;5073914;28;20303;-46
2022/07/18 05:19:42;;;;;;;5.13;3.70;;;19.70;34.20;;;;;;5074088;28;20325;-45
2022/07/18 05:22:08;;;;;;;5.77;5.13;;;19.70;34.20;;;;;;5074016;28;20259;-47
2022/07/18 05:24:34;;;;;;;6.63;4.73;;;19.80;34.10;;;;;;5074013;28;20215;-45
2022/07/18 05:27:00;;;;;;;11.40;5.20;;;19.80;34.20;;;;;;5073580;28;20173;-46
2022/07/18 05:29:25;;;;;;;5.40;3.37;;;20.00;34.10;;;;;;5073968;28;20168;-45
2022/07/18 05:31:51;;;;;;;15.03;4.67;;;20.00;33.40;;;;;;5073895;28;20255;-46
2022/07/18 05:34:17;;;;;;;5.50;3.93;;;19.90;33.10;;;;;;5073861;28;20168;-47
2022/07/18 05:36:42;;;;;;;5.17;3.50;;;20.00;33.50;;;;;;5073615;28;20173;-46
2022/07/18 05:39:09;;;;;;;6.10;3.40;;;20.10;33.90;;;;;;5073730;28;20205;-46
2022/07/18 05:41:35;;;;;;;6.22;2.95;;;20.10;33.60;;;;;;5073747;28;20246;-46
2022/07/18 05:44:00;;;;;;;4.70;3.47;;;20.20;33.40;;;;;;5073742;28;20623;-46
2022/07/18 05:46:26;;;;;;;5.73;4.03;;;20.20;33.50;;;;;;5073364;28;20718;-46
2022/07/18 05:48:53;;;;;;;5.90;3.40;;;20.30;33.20;;;;;;5073537;28;20220;-46
2022/07/18 05:51:20;;;;;;;4.70;3.00;;;20.40;33.20;;;;;;5073704;28;20185;-46
2022/07/18 05:53:47;;;;;;;6.13;3.42;;;20.40;32.90;;;;;;5073671;28;20188;-46
2022/07/18 05:56:13;;;;;;;5.53;3.53;;;20.40;32.80;;;;;;5073083;28;20192;-46
2022/07/18 05:58:38;;;;;;;4.53;3.33;;;20.50;33.20;;;;;;5073118;28;20204;-46
2022/07/18 06:01:04;;;;;;;5.17;3.90;;;20.60;33.30;;;;;;5073434;28;20176;-46
2022/07/18 06:03:30;;;;;;;6.47;2.67;;;20.80;33.50;;;;;;5073455;28;20263;-45
2022/07/18 06:05:56;;;;;;;10.27;3.43;;;21.00;33.50;;;;;;5073137;28;20407;-47
2022/07/18 06:08:21;;;;;;;4.93;3.50;;;21.20;33.40;;;;;;5073142;28;20193;-47
2022/07/18 06:10:47;;;;;;;5.50;3.00;;;21.30;33.20;;;;;;5073015;28;20201;-47
2022/07/18 06:13:13;;;;;;;5.77;2.90;;;21.50;32.80;;;;;;5073170;28;20169;-46
2022/07/18 06:15:39;;;;;;;4.67;2.70;;;21.60;32.30;;;;;;5072779;28;20169;-45
2022/07/18 06:18:04;;;;;;;5.03;2.70;;;21.60;31.40;;;;;;5072522;28;20207;-47
2022/07/18 06:20:30;;;;;;;7.90;2.97;;;21.60;31.40;;;;;;5072281;28;20161;-47
2022/07/18 06:22:56;;;;;;;4.90;3.50;;;21.70;31.90;;;;;;5072807;28;20544;-45
2022/07/18 06:25:22;;;;;;;3.80;3.03;;;21.70;31.70;;;;;;5072727;28;20168;-46
2022/07/18 06:27:48;;;;;;;4.27;3.13;;;21.70;30.90;;;;;;5072729;28;20224;-46
2022/07/18 06:30:14;;;;;;;2.83;1.93;;;21.70;31.10;;;;;;5072679;28;20415;-45
2022/07/18 06:32:40;;;;;;;3.90;2.50;;;21.70;30.90;;;;;;5072925;28;20188;-45
2022/07/18 06:35:07;;;;;;;2.65;1.77;;;21.80;31.30;;;;;;5072604;28;20410;-46
2022/07/18 06:37:33;;;;;;;7.60;2.30;;;21.90;32.10;;;;;;5072311;28;20583;-46
2022/07/18 06:39:59;;;;;;;4.40;2.70;;;22.10;32.50;;;;;;5072351;28;20200;-46
2022/07/18 06:42:24;;;;;;;4.20;2.13;;;22.30;32.50;;;;;;5072489;28;20418;-45
2022/07/18 06:44:50;;;;;;;3.00;2.00;;;22.50;32.20;;;;;;5072442;28;20164;-46
2022/07/18 06:47:16;;;;;;;3.40;1.47;;;22.70;31.80;;;;;;5072082;28;20216;-45
2022/07/18 06:49:41;;;;;;;4.23;2.07;;;22.80;31.80;;;;;;5072371;28;20176;-47
2022/07/18 06:52:11;;;;;;;3.17;2.20;;;22.90;31.10;;;;;;5072244;28;20203;-47
2022/07/18 06:54:38;;;;;;;3.03;1.58;;;23.10;31.20;;;;;;5072253;28;20261;-48
2022/07/18 06:57:07;;;;;;;3.53;1.85;;;23.20;31.10;;;;;;5072272;28;20582;-48
2022/07/18 06:59:33;;;;;;;2.35;1.33;;;23.30;31.20;;;;;;5072073;28;20208;-47
2022/07/18 07:01:59;;;;;;;2.75;1.85;;;23.40;30.80;;;;;;5072128;28;20211;-47
2022/07/18 07:04:25;;;;;;;3.37;1.53;;;23.50;29.70;;;;;;5072184;28;20217;-46
2022/07/18 07:06:51;;;;;;;2.93;1.83;;;23.50;29.20;;;;;;5053793;28;20418;-47
2022/07/18 07:09:17;;;;;;;4.10;1.90;;;23.50;29.70;;;;;;5072134;28;20382;-47
2022/07/18 07:11:43;;;;;;;5.40;2.13;;;23.60;28.80;;;;;;5072338;28;20271;-46
2022/07/18 07:14:08;;;;;;;4.93;2.50;;;23.70;28.70;;;;;;5072080;28;20168;-47
2022/07/18 07:16:34;;;;;;;3.77;1.80;;;23.80;28.00;;;;;;5071872;28;20410;-46
2022/07/18 07:19:00;;;;;;;3.43;1.90;;;23.80;27.30;;;;;;5071757;28;20247;-47
2022/07/18 07:21:26;;;;;;;6.33;2.37;;;23.90;27.90;;;;;;5071944;28;20165;-47
2022/07/18 07:23:52;;;;;;;2.87;1.57;;;24.00;27.20;;;;;;5053979;28;20165;-46
2022/07/18 07:26:17;;;;;;;4.93;1.60;;;24.10;27.20;;;;;;5053743;28;20192;-47
2022/07/18 07:28:43;;;;;;;5.10;1.93;;;24.20;27.10;;;;;;5071883;28;20274;-47
2022/07/18 07:31:09;;;;;;;3.13;1.50;;;24.30;26.20;;;;;;5071540;28;20181;-43
2022/07/18 07:33:35;;;;;;;3.37;1.77;;;24.40;26.70;;;;;;5071878;28;20180;-45
2022/07/18 07:36:01;;;;;;;4.30;1.70;;;24.50;27.70;;;;;;5071641;28;20259;-44
2022/07/18 07:38:28;;;;;;;6.83;1.50;;;24.70;28.30;;;;;;5071702;28;20295;-45
2022/07/18 07:40:55;;;;;;;4.00;1.30;;;24.90;28.70;;;;;;5071761;28;20421;-45
2022/07/18 07:43:21;;;;;;;3.80;1.47;;;25.10;28.70;;;;;;5071958;28;20401;-44
2022/07/18 07:45:52;;;;;;;7.37;1.40;;;25.40;28.30;;;;;;5071520;28;20485;-45
2022/07/18 07:48:18;;;;;;;2.83;1.27;;;25.60;28.30;;;;;;5071730;28;20518;-45
2022/07/18 07:50:44;;;;;;;3.40;1.13;;;25.80;27.80;;;;;;5071870;28;20438;-46
2022/07/18 07:53:10;;;;;;;4.33;1.33;;;25.90;26.80;;;;;;5054260;28;20427;-47
2022/07/18 07:55:36;;;;;;;2.43;1.10;;;26.00;26.80;;;;;;5071762;28;20176;-44
2022/07/18 07:58:04;;;;;;;2.80;1.30;;;26.10;26.50;;;;;;5071510;28;20235;-47
2022/07/18 08:00:30;;;;;;;2.30;1.10;;;26.20;26.30;;;;;;5071837;28;20461;-45
2022/07/18 08:03:02;;;;;;;2.07;0.97;;;26.30;25.90;;;;;;5071565;28;20403;-47
2022/07/18 08:05:30;;;;;;;2.77;1.30;;;26.30;25.90;;;;;;5071753;28;20395;-45
2022/07/18 08:07:57;;;;;;;2.87;1.37;;;26.40;26.20;;;;;;5071476;28;20822;-44
2022/07/18 08:10:23;;;;;;;2.83;1.47;;;26.60;26.60;;;;;;5071656;28;20406;-43
2022/07/18 08:12:49;;;;;;;4.17;1.27;;;26.70;26.30;;;;;;5071512;28;20411;-46
2022/07/18 08:15:15;;;;;;;3.20;1.20;;;26.90;26.30;;;;;;5071515;28;20199;-47
2022/07/18 08:17:40;;;;;;;3.30;1.30;;;27.00;26.10;;;;;;5071052;28;20211;-47
2022/07/18 08:20:07;;;;;;;2.03;1.13;;;27.20;24.50;;;;;;5071357;28;20446;-48
2022/07/18 08:22:34;;;;;;;2.10;1.10;;;27.20;25.10;;;;;;5071507;28;20165;-46
2022/07/18 08:25:01;;;;;;;1.83;1.13;;;27.30;25.20;;;;;;5071359;28;20411;-47
2022/07/18 08:27:26;;;;;;;2.23;1.00;;;27.30;23.80;;;;;;5071096;28;20529;-46
2022/07/18 08:29:52;;;;;;;3.40;1.00;;;27.40;24.90;;;;;;5071252;28;20490;-48
2022/07/18 08:32:18;;;;;;;2.30;1.13;;;27.50;24.90;;;;;;5071298;28;20165;-47
2022/07/18 08:34:44;;;;;;;3.80;0.90;;;27.60;24.80;;;;;;5071295;28;20508;-47
2022/07/18 08:37:09;;;;;;;3.60;1.47;;;27.70;22.90;;;;;;5052948;28;20180;-47
2022/07/18 08:39:35;;;;;;;3.53;1.07;;;27.80;23.40;;;;;;5071142;28;20203;-46
2022/07/18 08:42:01;;;;;;;6.70;4.50;;;27.90;22.50;;;;;;5071674;28;20243;-46
2022/07/18 08:44:34;;;;;;;3.20;1.43;;;27.90;21.30;;;;;;5075000;28;20172;-45
2022/07/18 08:47:00;;;;;;;3.53;1.20;;;28.00;22.00;;;;;;5074343;28;20391;-44
2022/07/18 08:49:26;;;;;;;3.10;1.23;;;28.10;22.10;;;;;;5074851;28;20414;-45
2022/07/18 08:51:53;;;;;;;2.00;1.00;;;28.20;22.40;;;;;;5074591;28;20406;-44
2022/07/18 08:54:19;;;;;;;2.10;1.10;;;28.20;21.80;;;;;;5074561;28;20399;-45
2022/07/18 08:56:45;;;;;;;2.20;1.07;;;28.30;22.30;;;;;;5074424;28;20482;-44
2022/07/18 08:59:11;;;;;;;2.43;0.83;;;28.30;20.70;;;;;;5074355;28;20879;-44
2022/07/18 09:01:37;;;;;;;2.83;1.20;;;28.40;19.60;;;;;;5074592;28;20222;-44
2022/07/18 09:04:14;;;;;;;2.00;1.27;;;28.40;20.00;;;;;;5074366;28;20168;-45
2022/07/18 09:06:44;;;;;;;2.90;1.20;;;28.40;20.80;;;;;;5074406;28;20176;-45
2022/07/18 09:09:12;;;;;;;2.47;1.27;;;28.50;21.50;;;;;;5074158;28;20942;-45
2022/07/18 09:11:50;;;;;;;1.93;0.93;;;28.60;21.80;;;;;;5074225;28;20407;-44
2022/07/18 09:14:39;;;;;;;2.00;0.90;;;28.80;21.80;;;;;;5074416;28;20398;-45
2022/07/18 09:17:12;;;;;;;2.60;1.10;;;28.90;22.00;;;;;;5073726;28;20414;-45
2022/07/18 09:19:41;;;;;;;3.37;1.40;;;29.10;22.00;;;;;;5074102;28;20454;-45
2022/07/18 09:22:19;;;;;;;3.43;1.30;;;29.10;20.40;;;;;;5074154;28;20402;-45
2022/07/18 09:24:54;;;;;;;1.67;0.93;;;29.20;20.40;;;;;;5074239;28;20441;-44
2022/07/18 09:27:47;;;;;;;1.80;1.10;;;29.30;20.00;;;;;;5073679;28;20418;-45
2022/07/18 09:30:27;;;;;;;3.50;1.30;;;29.40;21.10;;;;;;5065868;28;20782;-45
2022/07/18 09:33:08;;;;;;;2.00;0.90;;;29.40;21.90;;;;;;5073841;28;20402;-45
2022/07/18 09:35:46;;;;;;;2.00;0.70;;;29.60;21.40;;;;;;5073568;28;20411;-45
2022/07/18 09:38:14;;;;;;;2.93;1.03;;;29.70;20.60;;;;;;5055766;28;20435;-45
2022/07/18 09:40:43;;;;;;;5.47;1.23;;;29.80;20.60;;;;;;5073776;28;20399;-44
2022/07/18 09:43:15;;;;;;;2.37;1.23;;;29.90;20.60;;;;;;5073687;28;20482;-45
2022/07/18 09:45:43;;;;;;;3.97;0.70;;;30.00;21.50;;;;;;5073413;28;20410;-44
2022/07/18 09:48:12;;;;;;;2.67;1.10;;;30.10;20.70;;;;;;5055555;28;20517;-45
2022/07/18 09:50:43;;;;;;;2.77;0.93;;;30.20;20.90;;;;;;5073840;28;20755;-44
2022/07/18 09:53:14;;;;;;;3.40;1.50;;;30.10;20.10;;;;;;5073304;28;20383;-45
2022/07/18 09:55:54;;;;;;;3.60;0.90;;;30.20;19.50;;;;;;5026648;22;20493;-45
2022/07/18 09:58:50;;;;;;;3.13;1.23;;;30.30;19.30;;;;;;5013557;28;20412;-45
2022/07/18 10:01:17;;;;;;;2.00;1.03;;;30.30;20.20;;;;;;5013606;28;20505;-46
2022/07/18 10:03:42;;;;;;;2.03;0.97;;;30.40;20.10;;;;;;5013555;28;20496;-45
2022/07/18 10:06:10;;;;;;;5.63;1.37;;;30.60;19.60;;;;;;5013281;28;20517;-47
2022/07/18 10:08:37;;;;;;;2.10;0.97;;;30.60;19.30;;;;;;5013517;28;20759;-47
2022/07/18 10:11:05;;;;;;;2.17;1.20;;;30.70;19.20;;;;;;5013480;28;20448;-46
2022/07/18 10:13:33;;;;;;;2.30;0.73;;;30.80;19.00;;;;;;5013468;28;20850;-47
2022/07/18 10:15:59;;;;;;;2.00;0.90;;;30.80;17.80;;;;;;5013075;28;21112;-46
2022/07/18 10:18:30;;;;;;;3.70;1.23;;;30.80;18.00;;;;;;5013291;28;20488;-45
2022/07/18 10:21:02;;;;;;;1.80;0.70;;;30.90;18.60;;;;;;5013380;28;20445;-46
2022/07/18 10:23:39;;;;;;;1.90;1.00;;;31.00;19.30;;;;;;5013121;28;20436;-46
2022/07/18 10:26:05;;;;;;;1.90;0.90;;;31.10;19.80;;;;;;5012989;28;20948;-46
2022/07/18 10:28:31;;;;;;;2.20;1.00;;;31.20;19.40;;;;;;5013165;28;20411;-46
2022/07/18 10:31:14;;;;;;;2.83;1.20;;;31.30;19.50;;;;;;5013069;28;20286;-47
2022/07/18 10:33:47;;;;;;;6.17;1.77;;;31.40;19.70;;;;;;5013405;28;20165;-48
2022/07/18 10:36:17;;;;;;;2.30;0.80;;;31.50;19.70;;;;;;5012774;28;20430;-46
2022/07/18 10:39:01;;;;;;;6.17;2.13;;;31.60;19.30;;;;;;5013027;28;20786;-47
2022/07/18 10:41:27;;;;;;;4.03;1.23;;;31.80;18.60;;;;;;5012976;28;20435;-47
2022/07/18 10:43:53;;;;;;;2.20;1.30;;;31.80;18.80;;;;;;5012933;28;20763;-47
2022/07/18 10:46:19;;;;;;;1.70;0.87;;;31.80;18.70;;;;;;5012592;28;20194;-48
2022/07/18 10:48:48;;;;;;;5.70;1.63;;;31.80;18.20;;;;;;5012768;28;20182;-47
2022/07/18 10:51:16;;;;;;;2.30;1.07;;;31.80;18.20;;;;;;5012817;28;20166;-47
2022/07/18 10:53:54;;;;;;;1.90;0.90;;;31.80;18.40;;;;;;5012748;28;20401;-47
2022/07/18 10:56:40;;;;;;;2.40;1.07;;;31.90;17.50;;;;;;5012393;28;20448;-46
2022/07/18 10:59:19;;;;;;;1.90;1.00;;;31.90;18.00;;;;;;5012347;28;20455;-47
2022/07/18 11:01:52;;;;;;;3.00;1.27;;;31.90;18.20;;;;;;5012673;28;20432;-47
2022/07/18 11:04:37;;;;;;;4.00;1.33;;;31.90;18.50;;;;;;5012403;28;20405;-48
2022/07/18 11:07:03;;;;;;;3.90;1.27;;;32.10;18.20;;;;;;5012612;28;20749;-47
2022/07/18 11:09:48;;;;;;;4.00;1.40;;;32.10;18.50;;;;;;5012742;28;20409;-47
2022/07/18 11:12:28;;;;;;;4.33;1.20;;;32.30;18.80;;;;;;5012773;28;20405;-47
2022/07/18 11:15:10;;;;;;;3.73;1.13;;;32.40;18.20;;;;;;4994657;28;20441;-48
2022/07/18 11:17:55;;;;;;;2.17;1.07;;;32.40;18.70;;;;;;5012193;28;20901;-46
2022/07/18 11:20:35;;;;;;;3.67;1.17;;;32.50;18.00;;;;;;5012379;28;20458;-48
2022/07/18 11:23:04;;;;;;;1.80;0.90;;;32.50;18.30;;;;;;5012547;28;20506;-47
2022/07/18 11:25:30;;;;;;;2.40;1.17;;;32.50;18.30;;;;;;5012172;28;20523;-45
2022/07/18 11:27:57;;;;;;;2.50;1.43;;;32.60;18.60;;;;;;5012190;28;20404;-47
2022/07/18 11:30:24;;;;;;;2.37;1.30;;;32.60;18.30;;;;;;5012035;28;20402;-46
2022/07/18 11:32:50;;;;;;;4.53;1.00;;;32.70;17.90;;;;;;5012183;28;20412;-49
2022/07/18 11:35:22;;;;;;;5.80;1.30;;;32.80;18.10;;;;;;5012204;28;20431;-48
2022/07/18 11:37:49;;;;;;;3.30;1.20;;;32.90;18.00;;;;;;5012072;28;20428;-48
2022/07/18 11:40:16;;;;;;;2.73;1.10;;;32.90;17.60;;;;;;5012102;28;20486;-47
2022/07/18 11:42:42;;;;;;;3.17;1.43;;;32.90;18.00;;;;;;5012134;28;20739;-49
2022/07/18 11:45:12;;;;;;;5.33;1.30;;;32.90;17.00;;;;;;5012114;28;20430;-47
2022/07/18 11:47:52;;;;;;;3.20;1.53;;;33.00;18.50;;;;;;5012030;28;20500;-47
2022/07/18 11:50:26;;;;;;;3.90;1.60;;;33.00;18.20;;;;;;5012226;28;20401;-46
2022/07/18 11:52:56;;;;;;;2.10;1.07;;;33.00;18.50;;;;;;5012206;28;20416;-47
2022/07/18 11:55:37;;;;;;;3.60;1.07;;;33.00;18.10;;;;;;5011880;28;20465;-48
2022/07/18 11:58:14;;;;;;;2.70;0.90;;;32.90;17.30;;;;;;5011930;28;20773;-46
2022/07/18 12:00:41;;;;;;;3.97;1.13;;;32.80;17.50;;;;;;5012190;28;20523;-47
2022/07/18 12:03:12;;;;;;;7.70;1.50;;;32.70;17.60;;;;;;5012022;28;20402;-45
2022/07/18 12:05:49;;;;;;;3.10;1.40;;;32.70;18.00;;;;;;5011887;28;20429;-46
2022/07/18 12:08:47;;;;;;;2.70;1.10;;;32.60;18.30;;;;;;5012246;28;20633;-47
2022/07/18 12:11:20;;;;;;;2.03;1.17;;;32.70;17.80;;;;;;4997150;28;20923;-47
2022/07/18 12:13:49;;;;;;;2.80;1.10;;;32.70;17.00;;;;;;5011824;28;20385;-47
2022/07/18 12:16:40;;;;;;;3.13;1.00;;;32.60;17.60;;;;;;5011620;28;20972;-48
2022/07/18 12:19:15;;;;;;;2.37;1.20;;;32.60;17.90;;;;;;5015552;28;20455;-46
2022/07/18 12:21:41;;;;;;;5.10;1.60;;;32.50;18.30;;;;;;5015676;28;20470;-47
2022/07/18 12:24:30;;;;;;;3.13;1.20;;;32.50;18.20;;;;;;5015448;28;20409;-49
2022/07/18 12:27:16;;;;;;;1.97;1.00;;;32.40;18.20;;;;;;5015227;28;20468;-47
2022/07/18 12:30:18;;;;;;;3.13;1.23;;;32.30;18.80;;;;;;5015455;28;20411;-46
2022/07/18 12:32:52;;;;;;;2.50;1.17;;;32.30;18.40;;;;;;5015332;28;20902;-49
2022/07/18 12:35:31;;;;;;;2.13;0.90;;;32.30;18.70;;;;;;5015454;28;20436;-46
2022/07/18 12:38:07;;;;;;;2.70;1.00;;;32.50;18.40;;;;;;5015420;28;20400;-47
2022/07/18 12:40:41;;;;;;;2.83;1.43;;;32.60;18.00;;;;;;5015228;28;20515;-47
2022/07/18 12:43:09;;;;;;;5.90;2.23;;;32.80;17.60;;;;;;5015046;28;20400;-48
2022/07/18 12:45:37;;;;;;;2.03;1.07;;;32.90;17.00;;;;;;5014981;28;20443;-47
2022/07/18 12:48:05;;;;;;;2.50;1.10;;;33.10;18.20;;;;;;5015377;28;20447;-46
2022/07/18 12:50:30;;;;;;;3.90;1.40;;;33.20;18.10;;;;;;5014582;28;20939;-46
2022/07/18 12:52:57;;;;;;;2.50;1.50;;;33.20;18.30;;;;;;5014940;28;20401;-48
2022/07/18 12:55:23;;;;;;;2.63;1.10;;;33.20;18.20;;;;;;5014715;28;20233;-47